sensor_id;sensor_type;location;lat;lon;timestamp;temperature;humidity
39665;DHT22;26679;50.872;4.332;2024-03-08T00:01:14;22.60;66.30
39665;DHT22;26679;50.872;4.332;2024-03-08T00:03:41;22.50;66.30
39665;DHT22;26679;50.872;4.332;2024-03-08T00:06:07;22.50;66.30
39665;DHT22;26679;50.872;4.332;2024-03-08T00:08:32;22.50;66.30
39665;DHT22;26679;50.872;4.332;2024-03-08T00:10:58;22.50;66.30
39665;DHT22;26679;50.872;4.332;2024-03-08T00:13:24;22.50;66.40
39665;DHT22;26679;50.872;4.332;2024-03-08T00:15:50;22.40;66.40
39665;DHT22;26679;50.872;4.332;2024-03-08T00:18:16;22.40;66.40
39665;DHT22;26679;50.872;4.332;2024-03-08T00:20:42;22.40;66.40
39665;DHT22;26679;50.872;4.332;2024-03-08T00:23:07;22.40;66.40
39665;DHT22;26679;50.872;4.332;2024-03-08T00:25:33;22.40;66.40
39665;DHT22;26679;50.872;4.332;2024-03-08T00:27:59;22.30;66.40
39665;DHT22;26679;50.872;4.332;2024-03-08T00:30:25;22.30;66.50
39665;DHT22;26679;50.872;4.332;2024-03-08T00:32:50;22.30;66.50
39665;DHT22;26679;50.872;4.332;2024-03-08T00:35:16;22.30;66.50
39665;DHT22;26679;50.872;4.332;2024-03-08T00:37:41;22.30;66.50
39665;DHT22;26679;50.872;4.332;2024-03-08T00:40:07;22.20;66.50
39665;DHT22;26679;50.872;4.332;2024-03-08T00:42:34;22.20;66.60
39665;DHT22;26679;50.872;4.332;2024-03-08T00:45:00;22.20;66.60
39665;DHT22;26679;50.872;4.332;2024-03-08T00:47:25;22.20;66.60
39665;DHT22;26679;50.872;4.332;2024-03-08T00:49:52;22.20;66.60
39665;DHT22;26679;50.872;4.332;2024-03-08T00:52:18;22.10;66.60
39665;DHT22;26679;50.872;4.332;2024-03-08T00:54:44;22.10;66.60
39665;DHT22;26679;50.872;4.332;2024-03-08T00:57:09;22.10;66.60
39665;DHT22;26679;50.872;4.332;2024-03-08T00:59:37;22.10;66.60
39665;DHT22;26679;50.872;4.332;2024-03-08T01:02:02;22.10;66.70
39665;DHT22;26679;50.872;4.332;2024-03-08T01:04:28;22.10;66.70
39665;DHT22;26679;50.872;4.332;2024-03-08T01:06:57;22.00;66.70
39665;DHT22;26679;50.872;4.332;2024-03-08T01:09:23;22.00;66.70
39665;DHT22;26679;50.872;4.332;2024-03-08T01:11:48;22.00;66.70
39665;DHT22;26679;50.872;4.332;2024-03-08T01:14:15;22.00;66.80
39665;DHT22;26679;50.872;4.332;2024-03-08T01:16:40;22.00;66.80
39665;DHT22;26679;50.872;4.332;2024-03-08T01:19:06;21.90;66.80
39665;DHT22;26679;50.872;4.332;2024-03-08T01:21:32;21.90;67.40
39665;DHT22;26679;50.872;4.332;2024-03-08T01:23:57;21.90;66.90
39665;DHT22;26679;50.872;4.332;2024-03-08T01:26:23;21.80;66.90
39665;DHT22;26679;50.872;4.332;2024-03-08T01:28:49;21.80;66.90
39665;DHT22;26679;50.872;4.332;2024-03-08T01:31:14;21.80;66.90
39665;DHT22;26679;50.872;4.332;2024-03-08T01:33:41;21.70;66.90
39665;DHT22;26679;50.872;4.332;2024-03-08T01:36:07;21.70;67.00
39665;DHT22;26679;50.872;4.332;2024-03-08T01:38:32;21.80;67.00
39665;DHT22;26679;50.872;4.332;2024-03-08T01:40:58;21.70;67.00
39665;DHT22;26679;50.872;4.332;2024-03-08T01:43:27;21.70;67.00
39665;DHT22;26679;50.872;4.332;2024-03-08T01:45:54;21.70;67.00
39665;DHT22;26679;50.872;4.332;2024-03-08T01:48:20;21.60;67.00
39665;DHT22;26679;50.872;4.332;2024-03-08T01:50:49;21.60;67.00
39665;DHT22;26679;50.872;4.332;2024-03-08T01:53:15;21.60;67.00
39665;DHT22;26679;50.872;4.332;2024-03-08T01:55:40;21.60;67.00
39665;DHT22;26679;50.872;4.332;2024-03-08T01:58:08;21.60;67.10
39665;DHT22;26679;50.872;4.332;2024-03-08T02:00:34;21.60;67.60
39665;DHT22;26679;50.872;4.332;2024-03-08T02:03:00;21.50;67.00
39665;DHT22;26679;50.872;4.332;2024-03-08T02:05:26;21.50;67.00
39665;DHT22;26679;50.872;4.332;2024-03-08T02:07:52;21.50;67.10
39665;DHT22;26679;50.872;4.332;2024-03-08T02:10:18;21.50;67.10
39665;DHT22;26679;50.872;4.332;2024-03-08T02:12:43;21.50;67.10
39665;DHT22;26679;50.872;4.332;2024-03-08T02:15:09;21.50;67.10
39665;DHT22;26679;50.872;4.332;2024-03-08T02:17:35;21.50;67.10
39665;DHT22;26679;50.872;4.332;2024-03-08T02:20:01;21.50;67.20
39665;DHT22;26679;50.872;4.332;2024-03-08T02:22:30;21.40;67.10
39665;DHT22;26679;50.872;4.332;2024-03-08T02:24:58;21.40;67.10
39665;DHT22;26679;50.872;4.332;2024-03-08T02:27:26;21.40;67.10
39665;DHT22;26679;50.872;4.332;2024-03-08T02:29:56;21.40;67.10
39665;DHT22;26679;50.872;4.332;2024-03-08T02:32:22;21.40;67.20
39665;DHT22;26679;50.872;4.332;2024-03-08T02:34:48;21.40;67.20
39665;DHT22;26679;50.872;4.332;2024-03-08T02:37:13;21.40;67.20
39665;DHT22;26679;50.872;4.332;2024-03-08T02:39:39;21.30;67.20
39665;DHT22;26679;50.872;4.332;2024-03-08T02:42:04;21.30;67.10
39665;DHT22;26679;50.872;4.332;2024-03-08T02:44:30;21.30;67.20
39665;DHT22;26679;50.872;4.332;2024-03-08T02:46:55;21.30;67.20
39665;DHT22;26679;50.872;4.332;2024-03-08T02:49:21;21.30;67.20
39665;DHT22;26679;50.872;4.332;2024-03-08T02:51:46;21.30;67.20
39665;DHT22;26679;50.872;4.332;2024-03-08T02:54:12;21.30;67.20
39665;DHT22;26679;50.872;4.332;2024-03-08T02:56:37;21.20;67.10
39665;DHT22;26679;50.872;4.332;2024-03-08T02:59:03;21.30;67.20
39665;DHT22;26679;50.872;4.332;2024-03-08T03:01:28;21.20;67.10
39665;DHT22;26679;50.872;4.332;2024-03-08T03:03:54;21.20;67.10
39665;DHT22;26679;50.872;4.332;2024-03-08T03:06:19;21.20;67.10
39665;DHT22;26679;50.872;4.332;2024-03-08T03:08:46;21.20;67.10
39665;DHT22;26679;50.872;4.332;2024-03-08T03:11:12;21.20;67.10
39665;DHT22;26679;50.872;4.332;2024-03-08T03:13:41;21.20;67.10
39665;DHT22;26679;50.872;4.332;2024-03-08T03:16:07;21.20;67.10
39665;DHT22;26679;50.872;4.332;2024-03-08T03:18:33;21.30;67.10
39665;DHT22;26679;50.872;4.332;2024-03-08T03:20:58;21.30;67.00
39665;DHT22;26679;50.872;4.332;2024-03-08T03:23:24;21.30;67.00
39665;DHT22;26679;50.872;4.332;2024-03-08T03:25:51;21.30;66.90
39665;DHT22;26679;50.872;4.332;2024-03-08T03:28:17;21.40;66.90
39665;DHT22;26679;50.872;4.332;2024-03-08T03:30:46;21.40;66.80
39665;DHT22;26679;50.872;4.332;2024-03-08T03:33:11;21.40;66.80
39665;DHT22;26679;50.872;4.332;2024-03-08T03:35:37;21.50;66.80
39665;DHT22;26679;50.872;4.332;2024-03-08T03:38:03;21.50;66.70
39665;DHT22;26679;50.872;4.332;2024-03-08T03:40:29;21.50;66.60
39665;DHT22;26679;50.872;4.332;2024-03-08T03:42:55;21.60;66.60
39665;DHT22;26679;50.872;4.332;2024-03-08T03:45:20;21.60;66.50
39665;DHT22;26679;50.872;4.332;2024-03-08T03:47:46;21.70;66.40
39665;DHT22;26679;50.872;4.332;2024-03-08T03:50:11;21.70;66.30
39665;DHT22;26679;50.872;4.332;2024-03-08T03:52:37;21.80;66.30
39665;DHT22;26679;50.872;4.332;2024-03-08T03:55:03;21.90;66.20
39665;DHT22;26679;50.872;4.332;2024-03-08T03:57:30;21.90;66.20
39665;DHT22;26679;50.872;4.332;2024-03-08T03:59:55;22.00;66.10
39665;DHT22;26679;50.872;4.332;2024-03-08T04:02:20;22.00;66.00
39665;DHT22;26679;50.872;4.332;2024-03-08T04:04:47;22.00;66.00
39665;DHT22;26679;50.872;4.332;2024-03-08T04:07:13;22.00;65.90
39665;DHT22;26679;50.872;4.332;2024-03-08T04:09:38;22.10;65.90
39665;DHT22;26679;50.872;4.332;2024-03-08T04:12:04;22.10;65.70
39665;DHT22;26679;50.872;4.332;2024-03-08T04:14:30;22.20;65.70
39665;DHT22;26679;50.872;4.332;2024-03-08T04:16:55;22.20;65.60
39665;DHT22;26679;50.872;4.332;2024-03-08T04:19:24;22.30;65.60
39665;DHT22;26679;50.872;4.332;2024-03-08T04:21:51;22.30;65.50
39665;DHT22;26679;50.872;4.332;2024-03-08T04:24:17;22.40;65.50
39665;DHT22;26679;50.872;4.332;2024-03-08T04:26:42;22.40;65.40
39665;DHT22;26679;50.872;4.332;2024-03-08T04:29:08;22.40;65.30
39665;DHT22;26679;50.872;4.332;2024-03-08T04:31:34;22.50;65.30
39665;DHT22;26679;50.872;4.332;2024-03-08T04:33:59;22.50;65.30
39665;DHT22;26679;50.872;4.332;2024-03-08T04:36:25;22.60;65.20
39665;DHT22;26679;50.872;4.332;2024-03-08T04:38:50;22.60;65.10
39665;DHT22;26679;50.872;4.332;2024-03-08T04:41:16;22.70;65.10
39665;DHT22;26679;50.872;4.332;2024-03-08T04:43:42;22.70;65.00
39665;DHT22;26679;50.872;4.332;2024-03-08T04:46:08;22.80;64.90
39665;DHT22;26679;50.872;4.332;2024-03-08T04:48:36;22.80;64.90
39665;DHT22;26679;50.872;4.332;2024-03-08T04:51:02;22.90;64.80
39665;DHT22;26679;50.872;4.332;2024-03-08T04:53:28;22.90;64.70
39665;DHT22;26679;50.872;4.332;2024-03-08T04:55:54;23.00;64.70
39665;DHT22;26679;50.872;4.332;2024-03-08T04:58:20;23.00;64.60
39665;DHT22;26679;50.872;4.332;2024-03-08T05:00:46;23.00;64.60
39665;DHT22;26679;50.872;4.332;2024-03-08T05:03:11;23.10;64.50
39665;DHT22;26679;50.872;4.332;2024-03-08T05:05:37;23.10;64.50
39665;DHT22;26679;50.872;4.332;2024-03-08T05:08:02;23.10;64.50
39665;DHT22;26679;50.872;4.332;2024-03-08T05:10:28;23.10;64.40
39665;DHT22;26679;50.872;4.332;2024-03-08T05:12:53;23.10;64.40
39665;DHT22;26679;50.872;4.332;2024-03-08T05:15:19;23.10;64.40
39665;DHT22;26679;50.872;4.332;2024-03-08T05:17:46;23.10;64.30
39665;DHT22;26679;50.872;4.332;2024-03-08T05:20:11;23.10;64.30
39665;DHT22;26679;50.872;4.332;2024-03-08T05:22:38;23.10;64.30
39665;DHT22;26679;50.872;4.332;2024-03-08T05:25:05;23.10;64.20
39665;DHT22;26679;50.872;4.332;2024-03-08T05:27:33;23.20;64.30
39665;DHT22;26679;50.872;4.332;2024-03-08T05:29:59;23.10;64.30
39665;DHT22;26679;50.872;4.332;2024-03-08T05:32:25;23.10;64.30
39665;DHT22;26679;50.872;4.332;2024-03-08T05:34:51;23.10;64.30
39665;DHT22;26679;50.872;4.332;2024-03-08T05:37:17;23.10;64.30
39665;DHT22;26679;50.872;4.332;2024-03-08T05:39:42;23.10;64.30
39665;DHT22;26679;50.872;4.332;2024-03-08T05:42:09;23.10;64.30
39665;DHT22;26679;50.872;4.332;2024-03-08T05:44:35;23.10;64.30
39665;DHT22;26679;50.872;4.332;2024-03-08T05:47:01;23.10;64.30
39665;DHT22;26679;50.872;4.332;2024-03-08T05:49:26;23.10;64.30
39665;DHT22;26679;50.872;4.332;2024-03-08T05:51:51;23.10;64.40
39665;DHT22;26679;50.872;4.332;2024-03-08T05:54:18;23.00;64.30
39665;DHT22;26679;50.872;4.332;2024-03-08T05:56:43;23.00;64.40
39665;DHT22;26679;50.872;4.332;2024-03-08T05:59:09;23.00;64.40
39665;DHT22;26679;50.872;4.332;2024-03-08T06:01:35;22.90;64.40
39665;DHT22;26679;50.872;4.332;2024-03-08T06:04:02;22.90;64.40
39665;DHT22;26679;50.872;4.332;2024-03-08T06:06:27;22.90;64.50
39665;DHT22;26679;50.872;4.332;2024-03-08T06:08:53;22.90;64.40
39665;DHT22;26679;50.872;4.332;2024-03-08T06:11:19;22.90;64.50
39665;DHT22;26679;50.872;4.332;2024-03-08T06:13:45;22.90;64.50
39665;DHT22;26679;50.872;4.332;2024-03-08T06:16:11;22.90;64.50
39665;DHT22;26679;50.872;4.332;2024-03-08T06:18:37;22.90;64.40
39665;DHT22;26679;50.872;4.332;2024-03-08T06:21:03;22.90;64.40
39665;DHT22;26679;50.872;4.332;2024-03-08T06:23:30;22.90;64.40
39665;DHT22;26679;50.872;4.332;2024-03-08T06:25:55;23.00;64.50
39665;DHT22;26679;50.872;4.332;2024-03-08T06:28:22;22.90;64.40
39665;DHT22;26679;50.872;4.332;2024-03-08T06:30:48;23.00;64.50
39665;DHT22;26679;50.872;4.332;2024-03-08T06:33:16;22.90;64.40
39665;DHT22;26679;50.872;4.332;2024-03-08T06:35:41;22.90;64.40
39665;DHT22;26679;50.872;4.332;2024-03-08T06:38:07;22.90;64.40
39665;DHT22;26679;50.872;4.332;2024-03-08T06:40:32;22.90;64.40
39665;DHT22;26679;50.872;4.332;2024-03-08T06:42:58;22.90;64.40
39665;DHT22;26679;50.872;4.332;2024-03-08T06:45:23;23.00;64.40
39665;DHT22;26679;50.872;4.332;2024-03-08T06:47:49;23.00;64.40
39665;DHT22;26679;50.872;4.332;2024-03-08T06:50:15;23.00;64.30
39665;DHT22;26679;50.872;4.332;2024-03-08T06:52:41;23.00;64.30
39665;DHT22;26679;50.872;4.332;2024-03-08T06:55:08;23.00;64.30
39665;DHT22;26679;50.872;4.332;2024-03-08T06:57:34;23.00;64.30
39665;DHT22;26679;50.872;4.332;2024-03-08T07:00:00;23.00;64.20
39665;DHT22;26679;50.872;4.332;2024-03-08T07:02:26;23.00;64.20
39665;DHT22;26679;50.872;4.332;2024-03-08T07:04:52;23.00;64.10
39665;DHT22;26679;50.872;4.332;2024-03-08T07:07:18;23.00;64.10
39665;DHT22;26679;50.872;4.332;2024-03-08T07:09:45;23.00;64.10
39665;DHT22;26679;50.872;4.332;2024-03-08T07:12:11;23.00;64.10
39665;DHT22;26679;50.872;4.332;2024-03-08T07:14:38;23.00;64.10
39665;DHT22;26679;50.872;4.332;2024-03-08T07:17:07;23.00;64.10
39665;DHT22;26679;50.872;4.332;2024-03-08T07:19:36;23.10;64.10
39665;DHT22;26679;50.872;4.332;2024-03-08T07:22:04;23.10;64.10
39665;DHT22;26679;50.872;4.332;2024-03-08T07:24:29;23.00;64.00
39665;DHT22;26679;50.872;4.332;2024-03-08T07:27:13;23.00;64.00
39665;DHT22;26679;50.872;4.332;2024-03-08T07:29:39;23.10;64.10
39665;DHT22;26679;50.872;4.332;2024-03-08T07:32:04;23.00;64.10
39665;DHT22;26679;50.872;4.332;2024-03-08T07:34:49;23.00;64.00
39665;DHT22;26679;50.872;4.332;2024-03-08T07:37:16;23.00;64.00
39665;DHT22;26679;50.872;4.332;2024-03-08T07:39:41;23.00;64.00
39665;DHT22;26679;50.872;4.332;2024-03-08T07:42:07;23.00;64.00
39665;DHT22;26679;50.872;4.332;2024-03-08T07:44:32;23.00;63.90
39665;DHT22;26679;50.872;4.332;2024-03-08T07:46:58;23.10;64.00
39665;DHT22;26679;50.872;4.332;2024-03-08T07:49:24;23.00;63.90
39665;DHT22;26679;50.872;4.332;2024-03-08T07:51:50;23.00;63.90
39665;DHT22;26679;50.872;4.332;2024-03-08T07:54:15;23.10;63.90
39665;DHT22;26679;50.872;4.332;2024-03-08T07:56:41;23.10;63.90
39665;DHT22;26679;50.872;4.332;2024-03-08T07:59:07;23.10;63.90
39665;DHT22;26679;50.872;4.332;2024-03-08T08:01:33;23.10;63.90
39665;DHT22;26679;50.872;4.332;2024-03-08T08:03:59;23.10;63.80
39665;DHT22;26679;50.872;4.332;2024-03-08T08:06:24;23.10;63.80
39665;DHT22;26679;50.872;4.332;2024-03-08T08:08:50;23.10;63.80
39665;DHT22;26679;50.872;4.332;2024-03-08T08:11:16;23.10;63.80
39665;DHT22;26679;50.872;4.332;2024-03-08T08:13:41;23.10;63.80
39665;DHT22;26679;50.872;4.332;2024-03-08T08:16:08;23.10;63.70
39665;DHT22;26679;50.872;4.332;2024-03-08T08:18:34;23.10;63.70
39665;DHT22;26679;50.872;4.332;2024-03-08T08:21:01;23.10;63.80
39665;DHT22;26679;50.872;4.332;2024-03-08T08:23:27;23.20;63.80
39665;DHT22;26679;50.872;4.332;2024-03-08T08:25:52;23.10;63.70
39665;DHT22;26679;50.872;4.332;2024-03-08T08:28:18;23.20;63.70
39665;DHT22;26679;50.872;4.332;2024-03-08T08:30:44;23.20;63.70
39665;DHT22;26679;50.872;4.332;2024-03-08T08:33:09;23.20;64.20
39665;DHT22;26679;50.872;4.332;2024-03-08T08:35:36;23.20;63.70
39665;DHT22;26679;50.872;4.332;2024-03-08T08:38:02;23.20;63.60
39665;DHT22;26679;50.872;4.332;2024-03-08T08:40:29;23.30;63.60
39665;DHT22;26679;50.872;4.332;2024-03-08T08:42:56;23.30;63.60
39665;DHT22;26679;50.872;4.332;2024-03-08T08:45:25;23.30;63.60
39665;DHT22;26679;50.872;4.332;2024-03-08T08:47:50;23.30;63.60
39665;DHT22;26679;50.872;4.332;2024-03-08T08:50:16;23.30;63.50
39665;DHT22;26679;50.872;4.332;2024-03-08T08:52:41;23.30;63.50
39665;DHT22;26679;50.872;4.332;2024-03-08T08:55:10;23.30;63.50
39665;DHT22;26679;50.872;4.332;2024-03-08T08:57:42;23.40;63.50
39665;DHT22;26679;50.872;4.332;2024-03-08T09:00:09;23.40;63.40
39665;DHT22;26679;50.872;4.332;2024-03-08T09:02:40;23.40;63.40
39665;DHT22;26679;50.872;4.332;2024-03-08T09:05:06;23.40;63.40
39665;DHT22;26679;50.872;4.332;2024-03-08T09:07:33;23.50;63.40
39665;DHT22;26679;50.872;4.332;2024-03-08T09:09:59;23.50;63.30
39665;DHT22;26679;50.872;4.332;2024-03-08T09:12:25;23.50;63.30
39665;DHT22;26679;50.872;4.332;2024-03-08T09:14:50;23.60;63.30
39665;DHT22;26679;50.872;4.332;2024-03-08T09:17:16;23.60;63.30
39665;DHT22;26679;50.872;4.332;2024-03-08T09:19:49;23.60;63.80
39665;DHT22;26679;50.872;4.332;2024-03-08T09:22:15;23.60;63.20
39665;DHT22;26679;50.872;4.332;2024-03-08T09:24:40;23.70;63.20
39665;DHT22;26679;50.872;4.332;2024-03-08T09:27:07;23.80;63.20
39665;DHT22;26679;50.872;4.332;2024-03-08T09:29:34;23.90;63.20
39665;DHT22;26679;50.872;4.332;2024-03-08T09:32:00;24.00;63.20
39665;DHT22;26679;50.872;4.332;2024-03-08T09:34:26;24.20;63.10
39665;DHT22;26679;50.872;4.332;2024-03-08T09:36:52;24.60;62.80
39665;DHT22;26679;50.872;4.332;2024-03-08T09:39:17;25.00;62.20
39665;DHT22;26679;50.872;4.332;2024-03-08T09:41:46;25.50;61.80
39665;DHT22;26679;50.872;4.332;2024-03-08T09:44:14;25.90;61.40
39665;DHT22;26679;50.872;4.332;2024-03-08T09:46:40;26.30;61.00
39665;DHT22;26679;50.872;4.332;2024-03-08T09:49:06;26.60;60.70
39665;DHT22;26679;50.872;4.332;2024-03-08T09:51:33;26.90;60.40
39665;DHT22;26679;50.872;4.332;2024-03-08T09:53:58;27.20;60.10
39665;DHT22;26679;50.872;4.332;2024-03-08T09:56:24;27.50;59.80
39665;DHT22;26679;50.872;4.332;2024-03-08T09:58:50;27.80;59.60
39665;DHT22;26679;50.872;4.332;2024-03-08T10:01:31;28.00;59.30
39665;DHT22;26679;50.872;4.332;2024-03-08T10:03:59;28.30;59.00
39665;DHT22;26679;50.872;4.332;2024-03-08T10:06:25;28.50;58.70
39665;DHT22;26679;50.872;4.332;2024-03-08T10:08:51;28.80;58.50
39665;DHT22;26679;50.872;4.332;2024-03-08T10:11:17;29.10;58.20
39665;DHT22;26679;50.872;4.332;2024-03-08T10:13:44;29.30;57.90
39665;DHT22;26679;50.872;4.332;2024-03-08T10:16:10;29.60;57.70
39665;DHT22;26679;50.872;4.332;2024-03-08T10:18:35;29.80;57.50
39665;DHT22;26679;50.872;4.332;2024-03-08T10:21:08;30.00;57.30
39665;DHT22;26679;50.872;4.332;2024-03-08T10:23:35;30.30;57.10
39665;DHT22;26679;50.872;4.332;2024-03-08T10:26:10;30.50;56.90
39665;DHT22;26679;50.872;4.332;2024-03-08T10:28:38;30.70;56.70
39665;DHT22;26679;50.872;4.332;2024-03-08T10:31:03;31.00;56.50
39665;DHT22;26679;50.872;4.332;2024-03-08T10:33:29;31.30;56.90
39665;DHT22;26679;50.872;4.332;2024-03-08T10:35:54;31.50;56.10
39665;DHT22;26679;50.872;4.332;2024-03-08T10:38:21;31.80;56.00
39665;DHT22;26679;50.872;4.332;2024-03-08T10:40:48;32.00;55.80
39665;DHT22;26679;50.872;4.332;2024-03-08T10:43:18;32.10;55.60
39665;DHT22;26679;50.872;4.332;2024-03-08T10:45:49;32.30;55.50
39665;DHT22;26679;50.872;4.332;2024-03-08T10:48:34;32.50;55.40
39665;DHT22;26679;50.872;4.332;2024-03-08T10:51:02;32.70;55.30
39665;DHT22;26679;50.872;4.332;2024-03-08T10:53:28;32.90;55.10
39665;DHT22;26679;50.872;4.332;2024-03-08T10:55:57;33.00;55.00
39665;DHT22;26679;50.872;4.332;2024-03-08T10:58:26;33.20;54.90
39665;DHT22;26679;50.872;4.332;2024-03-08T11:00:55;33.30;54.80
39665;DHT22;26679;50.872;4.332;2024-03-08T11:06:05;33.60;54.70
39665;DHT22;26679;50.872;4.332;2024-03-08T11:08:31;33.70;54.60
39665;DHT22;26679;50.872;4.332;2024-03-08T11:10:59;33.80;54.50
39665;DHT22;26679;50.872;4.332;2024-03-08T11:16:00;34.00;54.30
39665;DHT22;26679;50.872;4.332;2024-03-08T11:18:26;34.10;54.30
39665;DHT22;26679;50.872;4.332;2024-03-08T11:20:53;34.30;54.30
39665;DHT22;26679;50.872;4.332;2024-03-08T11:23:22;34.30;54.10
39665;DHT22;26679;50.872;4.332;2024-03-08T11:25:48;34.50;54.10
39665;DHT22;26679;50.872;4.332;2024-03-08T11:28:19;34.60;54.10
39665;DHT22;26679;50.872;4.332;2024-03-08T11:30:46;34.70;54.10
39665;DHT22;26679;50.872;4.332;2024-03-08T11:33:16;34.70;53.90
39665;DHT22;26679;50.872;4.332;2024-03-08T11:35:42;34.80;53.90
39665;DHT22;26679;50.872;4.332;2024-03-08T11:38:11;34.90;53.90
39665;DHT22;26679;50.872;4.332;2024-03-08T11:40:36;35.00;53.80
39665;DHT22;26679;50.872;4.332;2024-03-08T11:43:03;35.10;53.70
39665;DHT22;26679;50.872;4.332;2024-03-08T11:45:33;35.20;53.70
39665;DHT22;26679;50.872;4.332;2024-03-08T11:48:02;35.20;53.60
39665;DHT22;26679;50.872;4.332;2024-03-08T11:50:28;35.30;53.60
39665;DHT22;26679;50.872;4.332;2024-03-08T11:52:59;35.40;53.60
39665;DHT22;26679;50.872;4.332;2024-03-08T11:55:25;35.40;53.50
39665;DHT22;26679;50.872;4.332;2024-03-08T11:57:50;35.50;53.50
39665;DHT22;26679;50.872;4.332;2024-03-08T12:00:24;35.60;53.50
39665;DHT22;26679;50.872;4.332;2024-03-08T12:03:00;35.60;53.40
39665;DHT22;26679;50.872;4.332;2024-03-08T12:05:26;35.70;53.40
39665;DHT22;26679;50.872;4.332;2024-03-08T12:07:57;35.80;53.30
39665;DHT22;26679;50.872;4.332;2024-03-08T12:10:23;35.90;53.30
39665;DHT22;26679;50.872;4.332;2024-03-08T12:12:51;36.00;53.30
39665;DHT22;26679;50.872;4.332;2024-03-08T12:15:17;36.00;53.20
39665;DHT22;26679;50.872;4.332;2024-03-08T12:17:43;36.00;53.10
39665;DHT22;26679;50.872;4.332;2024-03-08T12:20:15;36.10;53.10
39665;DHT22;26679;50.872;4.332;2024-03-08T12:22:44;36.20;53.10
39665;DHT22;26679;50.872;4.332;2024-03-08T12:25:13;36.20;53.00
39665;DHT22;26679;50.872;4.332;2024-03-08T12:27:39;36.30;52.90
39665;DHT22;26679;50.872;4.332;2024-03-08T12:30:24;36.40;52.90
39665;DHT22;26679;50.872;4.332;2024-03-08T12:32:58;36.50;52.90
39665;DHT22;26679;50.872;4.332;2024-03-08T12:35:24;36.50;52.80
39665;DHT22;26679;50.872;4.332;2024-03-08T12:37:51;36.60;52.80
39665;DHT22;26679;50.872;4.332;2024-03-08T12:40:18;36.70;53.40
39665;DHT22;26679;50.872;4.332;2024-03-08T12:42:44;36.70;52.80
39665;DHT22;26679;50.872;4.332;2024-03-08T12:45:13;36.70;52.80
39665;DHT22;26679;50.872;4.332;2024-03-08T12:47:38;36.80;52.80
39665;DHT22;26679;50.872;4.332;2024-03-08T12:50:05;36.80;52.70
39665;DHT22;26679;50.872;4.332;2024-03-08T12:52:34;36.80;52.70
39665;DHT22;26679;50.872;4.332;2024-03-08T12:54:59;36.90;52.70
39665;DHT22;26679;50.872;4.332;2024-03-08T12:57:32;36.90;52.70
39665;DHT22;26679;50.872;4.332;2024-03-08T12:59:59;36.90;52.60
39665;DHT22;26679;50.872;4.332;2024-03-08T13:02:24;37.00;52.70
39665;DHT22;26679;50.872;4.332;2024-03-08T13:04:51;37.00;52.60
39665;DHT22;26679;50.872;4.332;2024-03-08T13:07:23;37.10;52.60
39665;DHT22;26679;50.872;4.332;2024-03-08T13:09:54;37.00;52.50
39665;DHT22;26679;50.872;4.332;2024-03-08T13:12:20;37.10;52.60
39665;DHT22;26679;50.872;4.332;2024-03-08T13:14:46;37.10;52.50
39665;DHT22;26679;50.872;4.332;2024-03-08T13:17:12;37.10;52.50
39665;DHT22;26679;50.872;4.332;2024-03-08T13:19:38;37.10;52.50
39665;DHT22;26679;50.872;4.332;2024-03-08T13:22:03;37.20;52.50
39665;DHT22;26679;50.872;4.332;2024-03-08T13:24:32;37.20;52.50
39665;DHT22;26679;50.872;4.332;2024-03-08T13:26:59;37.20;52.50
39665;DHT22;26679;50.872;4.332;2024-03-08T13:29:25;37.20;52.50
39665;DHT22;26679;50.872;4.332;2024-03-08T13:31:50;37.20;52.50
39665;DHT22;26679;50.872;4.332;2024-03-08T13:34:17;37.20;52.50
39665;DHT22;26679;50.872;4.332;2024-03-08T13:36:43;37.10;52.40
39665;DHT22;26679;50.872;4.332;2024-03-08T13:39:09;37.10;52.50
39665;DHT22;26679;50.872;4.332;2024-03-08T13:41:40;37.10;52.40
39665;DHT22;26679;50.872;4.332;2024-03-08T13:44:08;37.00;52.40
39665;DHT22;26679;50.872;4.332;2024-03-08T13:46:33;37.00;52.50
39665;DHT22;26679;50.872;4.332;2024-03-08T13:49:05;36.90;52.50
39665;DHT22;26679;50.872;4.332;2024-03-08T13:51:33;36.90;52.50
39665;DHT22;26679;50.872;4.332;2024-03-08T13:53:59;36.80;52.50
39665;DHT22;26679;50.872;4.332;2024-03-08T13:56:26;36.80;52.50
39665;DHT22;26679;50.872;4.332;2024-03-08T13:58:51;36.70;52.60
39665;DHT22;26679;50.872;4.332;2024-03-08T14:01:17;36.70;52.60
39665;DHT22;26679;50.872;4.332;2024-03-08T14:03:42;36.60;52.60
39665;DHT22;26679;50.872;4.332;2024-03-08T14:06:08;36.60;52.60
39665;DHT22;26679;50.872;4.332;2024-03-08T14:08:35;36.50;52.60
39665;DHT22;26679;50.872;4.332;2024-03-08T14:11:03;36.50;52.70
39665;DHT22;26679;50.872;4.332;2024-03-08T14:13:35;36.40;52.70
39665;DHT22;26679;50.872;4.332;2024-03-08T14:16:03;36.30;52.70
39665;DHT22;26679;50.872;4.332;2024-03-08T14:18:28;36.30;52.70
39665;DHT22;26679;50.872;4.332;2024-03-08T14:20:54;36.20;52.70
39665;DHT22;26679;50.872;4.332;2024-03-08T14:23:20;36.10;52.70
39665;DHT22;26679;50.872;4.332;2024-03-08T14:25:45;36.10;52.80
39665;DHT22;26679;50.872;4.332;2024-03-08T14:28:11;36.00;52.80
39665;DHT22;26679;50.872;4.332;2024-03-08T14:30:37;36.00;52.90
39665;DHT22;26679;50.872;4.332;2024-03-08T14:33:07;35.90;52.90
39665;DHT22;26679;50.872;4.332;2024-03-08T14:35:36;35.90;53.00
39665;DHT22;26679;50.872;4.332;2024-03-08T14:38:02;35.80;53.00
39665;DHT22;26679;50.872;4.332;2024-03-08T14:40:27;35.70;53.00
39665;DHT22;26679;50.872;4.332;2024-03-08T14:42:53;35.70;53.20
39665;DHT22;26679;50.872;4.332;2024-03-08T14:45:19;35.60;53.70
39665;DHT22;26679;50.872;4.332;2024-03-08T14:47:48;35.50;53.10
39665;DHT22;26679;50.872;4.332;2024-03-08T14:50:17;35.50;53.20
39665;DHT22;26679;50.872;4.332;2024-03-08T14:52:43;35.40;53.20
39665;DHT22;26679;50.872;4.332;2024-03-08T14:55:08;35.40;53.30
39665;DHT22;26679;50.872;4.332;2024-03-08T14:57:35;35.30;53.30
39665;DHT22;26679;50.872;4.332;2024-03-08T15:00:00;35.20;53.40
39665;DHT22;26679;50.872;4.332;2024-03-08T15:02:31;35.10;53.40
39665;DHT22;26679;50.872;4.332;2024-03-08T15:04:57;34.90;53.40
39665;DHT22;26679;50.872;4.332;2024-03-08T15:07:24;34.70;53.50
39665;DHT22;26679;50.872;4.332;2024-03-08T15:09:51;34.40;53.60
39665;DHT22;26679;50.872;4.332;2024-03-08T15:12:16;34.10;53.80
39665;DHT22;26679;50.872;4.332;2024-03-08T15:14:42;33.70;54.00
39665;DHT22;26679;50.872;4.332;2024-03-08T15:17:09;33.40;54.20
39665;DHT22;26679;50.872;4.332;2024-03-08T15:19:42;33.10;54.40
39665;DHT22;26679;50.872;4.332;2024-03-08T15:22:08;32.70;54.50
39665;DHT22;26679;50.872;4.332;2024-03-08T15:24:35;32.50;54.70
39665;DHT22;26679;50.872;4.332;2024-03-08T15:27:00;32.20;54.80
39665;DHT22;26679;50.872;4.332;2024-03-08T15:29:27;32.00;55.00
39665;DHT22;26679;50.872;4.332;2024-03-08T15:31:52;31.80;55.20